Sao Paulo, Brazil
Current Conditions -  °F | °C
As of 5:00 PM on Monday 22 Dec 2014 (Local Time) from SBMT Reporting Station
Thunderstorm Thunderstorm  
Wind Chill: 73°   Ceiling: 3000
Heat Index: 73°   Visibility: 5mi
Dew Point: 68°   Wind: 9mph
Humidity: 83%   Direction: 290°WNW
Pressure: NA   Gusts: NA
Location:  23.53°S, 46.63°W
Report Text: SBMT 221900Z 29008KT 8000 -TSRA BKN030 FEW035CB BKN100 23/20 Q1013
Loading
Personal Weather Stations






























Interactive Weather Map New forecast layout! Learn more

10-Day Weather Forecast

Advertisements
Track Severe Weather on mobile